sensor_id;sensor_type;location;lat;lon;timestamp;temperature;humidity
47521;DHT22;32291;52.010;4.446;2023-08-31T00:00:16;12.70;99.90
47521;DHT22;32291;52.010;4.446;2023-08-31T00:01:19;12.80;99.90
47521;DHT22;32291;52.010;4.446;2023-08-31T00:02:21;12.80;99.90
47521;DHT22;32291;52.010;4.446;2023-08-31T00:03:28;13.00;99.90
47521;DHT22;32291;52.010;4.446;2023-08-31T00:04:30;13.00;99.90
47521;DHT22;32291;52.010;4.446;2023-08-31T00:05:40;13.10;99.90
47521;DHT22;32291;52.010;4.446;2023-08-31T00:06:44;13.00;99.90
47521;DHT22;32291;52.010;4.446;2023-08-31T00:07:53;13.00;99.90
47521;DHT22;32291;52.010;4.446;2023-08-31T00:08:56;13.10;99.90
47521;DHT22;32291;52.010;4.446;2023-08-31T00:09:59;13.00;99.90
47521;DHT22;32291;52.010;4.446;2023-08-31T00:11:06;13.00;99.90
47521;DHT22;32291;52.010;4.446;2023-08-31T00:12:08;13.00;99.90
47521;DHT22;32291;52.010;4.446;2023-08-31T00:13:15;13.00;99.90
47521;DHT22;32291;52.010;4.446;2023-08-31T00:14:18;12.90;99.90
47521;DHT22;32291;52.010;4.446;2023-08-31T00:15:23;12.90;99.90
47521;DHT22;32291;52.010;4.446;2023-08-31T00:16:33;12.90;99.90
47521;DHT22;32291;52.010;4.446;2023-08-31T00:17:40;12.90;99.90
47521;DHT22;32291;52.010;4.446;2023-08-31T00:18:47;12.90;99.90
47521;DHT22;32291;52.010;4.446;2023-08-31T00:19:49;12.90;99.90
47521;DHT22;32291;52.010;4.446;2023-08-31T00:20:51;12.90;99.90
47521;DHT22;32291;52.010;4.446;2023-08-31T00:21:58;12.90;99.90
47521;DHT22;32291;52.010;4.446;2023-08-31T00:23:01;13.00;99.90
47521;DHT22;32291;52.010;4.446;2023-08-31T00:24:03;12.90;99.90
47521;DHT22;32291;52.010;4.446;2023-08-31T00:25:06;12.90;99.90
47521;DHT22;32291;52.010;4.446;2023-08-31T00:26:10;12.90;99.90
47521;DHT22;32291;52.010;4.446;2023-08-31T00:27:12;12.90;99.90
47521;DHT22;32291;52.010;4.446;2023-08-31T00:28:21;12.90;99.90
47521;DHT22;32291;52.010;4.446;2023-08-31T00:29:24;12.90;99.90
47521;DHT22;32291;52.010;4.446;2023-08-31T00:30:26;12.80;99.90
47521;DHT22;32291;52.010;4.446;2023-08-31T00:31:36;12.80;99.90
47521;DHT22;32291;52.010;4.446;2023-08-31T00:32:43;12.80;99.90
47521;DHT22;32291;52.010;4.446;2023-08-31T00:33:50;12.80;99.90
47521;DHT22;32291;52.010;4.446;2023-08-31T00:34:53;12.70;99.90
47521;DHT22;32291;52.010;4.446;2023-08-31T00:36:01;12.70;99.90
47521;DHT22;32291;52.010;4.446;2023-08-31T00:37:05;12.70;99.90
47521;DHT22;32291;52.010;4.446;2023-08-31T00:38:07;12.70;99.90
47521;DHT22;32291;52.010;4.446;2023-08-31T00:39:14;12.60;99.90
47521;DHT22;32291;52.010;4.446;2023-08-31T00:40:21;12.60;99.90
47521;DHT22;32291;52.010;4.446;2023-08-31T00:41:24;12.50;99.90
47521;DHT22;32291;52.010;4.446;2023-08-31T00:42:28;12.50;99.90
47521;DHT22;32291;52.010;4.446;2023-08-31T00:43:31;12.50;99.90
47521;DHT22;32291;52.010;4.446;2023-08-31T00:44:34;12.50;99.90
47521;DHT22;32291;52.010;4.446;2023-08-31T00:45:37;12.50;99.90
47521;DHT22;32291;52.010;4.446;2023-08-31T00:46:40;12.40;99.90
47521;DHT22;32291;52.010;4.446;2023-08-31T00:47:43;12.40;99.90
47521;DHT22;32291;52.010;4.446;2023-08-31T00:48:45;12.40;99.90
47521;DHT22;32291;52.010;4.446;2023-08-31T00:49:52;12.40;99.90
47521;DHT22;32291;52.010;4.446;2023-08-31T00:51:03;12.30;99.90
47521;DHT22;32291;52.010;4.446;2023-08-31T00:52:07;12.40;99.90
47521;DHT22;32291;52.010;4.446;2023-08-31T00:53:09;12.30;99.90
47521;DHT22;32291;52.010;4.446;2023-08-31T00:54:11;12.30;99.90
47521;DHT22;32291;52.010;4.446;2023-08-31T00:55:13;12.30;99.90
47521;DHT22;32291;52.010;4.446;2023-08-31T00:56:21;12.40;99.90
47521;DHT22;32291;52.010;4.446;2023-08-31T00:57:27;12.30;99.90
47521;DHT22;32291;52.010;4.446;2023-08-31T00:58:34;12.30;99.90
47521;DHT22;32291;52.010;4.446;2023-08-31T00:59:36;12.30;99.90
47521;DHT22;32291;52.010;4.446;2023-08-31T01:00:55;12.30;99.90
47521;DHT22;32291;52.010;4.446;2023-08-31T01:02:20;12.30;99.90
47521;DHT22;32291;52.010;4.446;2023-08-31T01:04:51;12.20;99.90
47521;DHT22;32291;52.010;4.446;2023-08-31T01:08:19;12.10;99.90
47521;DHT22;32291;52.010;4.446;2023-08-31T01:11:49;12.00;99.90
47521;DHT22;32291;52.010;4.446;2023-08-31T01:13:15;12.10;99.90
47521;DHT22;32291;52.010;4.446;2023-08-31T01:14:38;12.00;99.90
47521;DHT22;32291;52.010;4.446;2023-08-31T01:15:53;12.00;99.90
47521;DHT22;32291;52.010;4.446;2023-08-31T01:17:11;12.00;99.90
47521;DHT22;32291;52.010;4.446;2023-08-31T01:18:17;12.00;99.90
47521;DHT22;32291;52.010;4.446;2023-08-31T01:23:07;12.10;99.90
47521;DHT22;32291;52.010;4.446;2023-08-31T01:24:17;12.10;99.90
47521;DHT22;32291;52.010;4.446;2023-08-31T01:25:26;12.10;99.90
47521;DHT22;32291;52.010;4.446;2023-08-31T01:26:34;12.00;99.90
47521;DHT22;32291;52.010;4.446;2023-08-31T01:27:41;12.10;99.90
47521;DHT22;32291;52.010;4.446;2023-08-31T01:28:49;12.00;99.90
47521;DHT22;32291;52.010;4.446;2023-08-31T01:30:03;12.00;99.90
47521;DHT22;32291;52.010;4.446;2023-08-31T01:31:06;12.10;99.90
47521;DHT22;32291;52.010;4.446;2023-08-31T01:32:08;12.10;99.90
47521;DHT22;32291;52.010;4.446;2023-08-31T01:33:15;12.00;99.90
47521;DHT22;32291;52.010;4.446;2023-08-31T01:34:22;12.00;99.90
47521;DHT22;32291;52.010;4.446;2023-08-31T01:35:36;12.00;99.90
47521;DHT22;32291;52.010;4.446;2023-08-31T01:36:48;12.00;99.90
47521;DHT22;32291;52.010;4.446;2023-08-31T01:38:04;12.00;99.90
47521;DHT22;32291;52.010;4.446;2023-08-31T01:39:26;12.10;99.90
47521;DHT22;32291;52.010;4.446;2023-08-31T01:40:53;12.10;99.90
47521;DHT22;32291;52.010;4.446;2023-08-31T01:42:08;12.10;99.90
47521;DHT22;32291;52.010;4.446;2023-08-31T01:43:21;12.00;99.90
47521;DHT22;32291;52.010;4.446;2023-08-31T01:44:34;12.10;99.90
47521;DHT22;32291;52.010;4.446;2023-08-31T01:45:44;12.10;99.90
47521;DHT22;32291;52.010;4.446;2023-08-31T01:46:53;12.10;99.90
47521;DHT22;32291;52.010;4.446;2023-08-31T01:47:56;12.10;99.90
47521;DHT22;32291;52.010;4.446;2023-08-31T01:48:59;12.10;99.90
47521;DHT22;32291;52.010;4.446;2023-08-31T01:50:01;12.10;99.90
47521;DHT22;32291;52.010;4.446;2023-08-31T01:51:03;12.10;99.90
47521;DHT22;32291;52.010;4.446;2023-08-31T01:52:08;12.10;99.90
47521;DHT22;32291;52.010;4.446;2023-08-31T01:53:15;12.20;99.90
47521;DHT22;32291;52.010;4.446;2023-08-31T01:54:22;12.10;99.90
47521;DHT22;32291;52.010;4.446;2023-08-31T01:55:29;12.20;99.90
47521;DHT22;32291;52.010;4.446;2023-08-31T01:56:31;12.20;99.90
47521;DHT22;32291;52.010;4.446;2023-08-31T01:57:38;12.20;99.90
47521;DHT22;32291;52.010;4.446;2023-08-31T01:58:45;12.20;99.90
47521;DHT22;32291;52.010;4.446;2023-08-31T01:59:47;12.20;99.90
47521;DHT22;32291;52.010;4.446;2023-08-31T02:00:57;12.20;99.90
47521;DHT22;32291;52.010;4.446;2023-08-31T02:02:04;12.20;99.90
47521;DHT22;32291;52.010;4.446;2023-08-31T02:03:11;12.20;99.90
47521;DHT22;32291;52.010;4.446;2023-08-31T02:04:18;12.30;99.90
47521;DHT22;32291;52.010;4.446;2023-08-31T02:05:23;12.30;99.90
47521;DHT22;32291;52.010;4.446;2023-08-31T02:06:28;12.30;99.90
47521;DHT22;32291;52.010;4.446;2023-08-31T02:07:30;12.30;99.90
47521;DHT22;32291;52.010;4.446;2023-08-31T02:08:32;12.30;99.90
47521;DHT22;32291;52.010;4.446;2023-08-31T02:09:34;12.20;99.90
47521;DHT22;32291;52.010;4.446;2023-08-31T02:10:41;12.20;99.90
47521;DHT22;32291;52.010;4.446;2023-08-31T02:11:48;12.20;99.90
47521;DHT22;32291;52.010;4.446;2023-08-31T02:12:55;12.20;99.90
47521;DHT22;32291;52.010;4.446;2023-08-31T02:13:58;12.20;99.90
47521;DHT22;32291;52.010;4.446;2023-08-31T02:15:05;12.20;99.90
47521;DHT22;32291;52.010;4.446;2023-08-31T02:16:13;12.20;99.90
47521;DHT22;32291;52.010;4.446;2023-08-31T02:17:15;12.20;99.90
47521;DHT22;32291;52.010;4.446;2023-08-31T02:18:23;12.20;99.90
47521;DHT22;32291;52.010;4.446;2023-08-31T02:19:28;12.20;99.90
47521;DHT22;32291;52.010;4.446;2023-08-31T02:20:38;12.20;99.90
47521;DHT22;32291;52.010;4.446;2023-08-31T02:21:40;12.30;99.90
47521;DHT22;32291;52.010;4.446;2023-08-31T02:22:47;12.30;99.90
47521;DHT22;32291;52.010;4.446;2023-08-31T02:23:51;12.30;99.90
47521;DHT22;32291;52.010;4.446;2023-08-31T02:24:57;12.30;99.90
47521;DHT22;32291;52.010;4.446;2023-08-31T02:26:05;12.30;99.90
47521;DHT22;32291;52.010;4.446;2023-08-31T02:27:12;12.30;99.90
47521;DHT22;32291;52.010;4.446;2023-08-31T02:28:19;12.30;99.90
47521;DHT22;32291;52.010;4.446;2023-08-31T02:29:26;12.30;99.90
47521;DHT22;32291;52.010;4.446;2023-08-31T02:30:33;12.30;99.90
47521;DHT22;32291;52.010;4.446;2023-08-31T02:31:35;12.20;99.90
47521;DHT22;32291;52.010;4.446;2023-08-31T02:32:44;12.20;99.90
47521;DHT22;32291;52.010;4.446;2023-08-31T02:33:51;12.20;99.90
47521;DHT22;32291;52.010;4.446;2023-08-31T02:34:59;12.20;99.90
47521;DHT22;32291;52.010;4.446;2023-08-31T02:36:01;12.20;99.90
47521;DHT22;32291;52.010;4.446;2023-08-31T02:37:04;12.10;99.90
47521;DHT22;32291;52.010;4.446;2023-08-31T02:38:07;12.20;99.90
47521;DHT22;32291;52.010;4.446;2023-08-31T02:39:09;12.20;99.90
47521;DHT22;32291;52.010;4.446;2023-08-31T02:40:12;12.20;99.90
47521;DHT22;32291;52.010;4.446;2023-08-31T02:41:19;12.20;99.90
47521;DHT22;32291;52.010;4.446;2023-08-31T02:42:21;12.10;99.90
47521;DHT22;32291;52.010;4.446;2023-08-31T02:43:23;12.10;99.90
47521;DHT22;32291;52.010;4.446;2023-08-31T02:44:32;12.20;99.90
47521;DHT22;32291;52.010;4.446;2023-08-31T02:45:34;12.10;99.90
47521;DHT22;32291;52.010;4.446;2023-08-31T02:46:42;12.10;99.90
47521;DHT22;32291;52.010;4.446;2023-08-31T02:47:45;12.10;99.90
47521;DHT22;32291;52.010;4.446;2023-08-31T02:48:47;12.10;99.90
47521;DHT22;32291;52.010;4.446;2023-08-31T02:49:54;12.10;99.90
47521;DHT22;32291;52.010;4.446;2023-08-31T02:50:58;12.10;99.90
47521;DHT22;32291;52.010;4.446;2023-08-31T02:52:03;12.10;99.90
47521;DHT22;32291;52.010;4.446;2023-08-31T02:53:05;12.10;99.90
47521;DHT22;32291;52.010;4.446;2023-08-31T02:54:07;12.00;99.90
47521;DHT22;32291;52.010;4.446;2023-08-31T02:55:10;12.10;99.90
47521;DHT22;32291;52.010;4.446;2023-08-31T02:56:12;12.00;99.90
47521;DHT22;32291;52.010;4.446;2023-08-31T02:57:21;12.10;99.90
47521;DHT22;32291;52.010;4.446;2023-08-31T02:58:23;12.00;99.90
47521;DHT22;32291;52.010;4.446;2023-08-31T02:59:26;12.00;99.90
47521;DHT22;32291;52.010;4.446;2023-08-31T03:00:33;12.00;99.90
47521;DHT22;32291;52.010;4.446;2023-08-31T03:01:40;12.00;99.90
47521;DHT22;32291;52.010;4.446;2023-08-31T03:02:42;12.10;99.90
47521;DHT22;32291;52.010;4.446;2023-08-31T03:03:48;12.00;99.90
47521;DHT22;32291;52.010;4.446;2023-08-31T03:04:50;12.00;99.90
47521;DHT22;32291;52.010;4.446;2023-08-31T03:05:57;12.00;99.90
47521;DHT22;32291;52.010;4.446;2023-08-31T03:07:04;12.00;99.90
47521;DHT22;32291;52.010;4.446;2023-08-31T03:08:09;12.00;99.90
47521;DHT22;32291;52.010;4.446;2023-08-31T03:09:16;12.00;99.90
47521;DHT22;32291;52.010;4.446;2023-08-31T03:10:27;12.00;99.90
47521;DHT22;32291;52.010;4.446;2023-08-31T03:11:33;12.00;99.90
47521;DHT22;32291;52.010;4.446;2023-08-31T03:12:42;12.00;99.90
47521;DHT22;32291;52.010;4.446;2023-08-31T03:13:47;12.00;99.90
47521;DHT22;32291;52.010;4.446;2023-08-31T03:14:49;12.00;99.90
47521;DHT22;32291;52.010;4.446;2023-08-31T03:15:58;12.00;99.90
47521;DHT22;32291;52.010;4.446;2023-08-31T03:17:06;12.10;99.90
47521;DHT22;32291;52.010;4.446;2023-08-31T03:18:13;12.10;99.90
47521;DHT22;32291;52.010;4.446;2023-08-31T03:19:15;12.10;99.90
47521;DHT22;32291;52.010;4.446;2023-08-31T03:20:17;12.20;99.90
47521;DHT22;32291;52.010;4.446;2023-08-31T03:21:19;12.20;99.90
47521;DHT22;32291;52.010;4.446;2023-08-31T03:22:22;12.10;99.90
47521;DHT22;32291;52.010;4.446;2023-08-31T03:23:25;12.10;99.90
47521;DHT22;32291;52.010;4.446;2023-08-31T03:24:27;12.10;99.90
47521;DHT22;32291;52.010;4.446;2023-08-31T03:25:29;12.10;99.90
47521;DHT22;32291;52.010;4.446;2023-08-31T03:26:36;12.00;99.90
47521;DHT22;32291;52.010;4.446;2023-08-31T03:27:39;12.00;99.90
47521;DHT22;32291;52.010;4.446;2023-08-31T03:28:42;12.00;99.90
47521;DHT22;32291;52.010;4.446;2023-08-31T03:29:47;12.00;99.90
47521;DHT22;32291;52.010;4.446;2023-08-31T03:30:56;11.90;99.90
47521;DHT22;32291;52.010;4.446;2023-08-31T03:32:03;12.00;99.90
47521;DHT22;32291;52.010;4.446;2023-08-31T03:33:06;11.90;99.90
47521;DHT22;32291;52.010;4.446;2023-08-31T03:34:08;11.90;99.90
47521;DHT22;32291;52.010;4.446;2023-08-31T03:35:11;12.00;99.90
47521;DHT22;32291;52.010;4.446;2023-08-31T03:36:18;11.90;99.90
47521;DHT22;32291;52.010;4.446;2023-08-31T03:37:25;11.90;99.90
47521;DHT22;32291;52.010;4.446;2023-08-31T03:38:32;11.90;99.90
47521;DHT22;32291;52.010;4.446;2023-08-31T03:39:39;11.80;99.90
47521;DHT22;32291;52.010;4.446;2023-08-31T03:40:53;11.80;99.90
47521;DHT22;32291;52.010;4.446;2023-08-31T03:42:01;11.80;99.90
47521;DHT22;32291;52.010;4.446;2023-08-31T03:43:08;11.80;99.90
47521;DHT22;32291;52.010;4.446;2023-08-31T03:44:11;11.70;99.90
47521;DHT22;32291;52.010;4.446;2023-08-31T03:45:18;11.70;99.90
47521;DHT22;32291;52.010;4.446;2023-08-31T03:46:25;11.70;99.90
47521;DHT22;32291;52.010;4.446;2023-08-31T03:47:33;11.80;99.90
47521;DHT22;32291;52.010;4.446;2023-08-31T03:48:36;11.70;99.90
47521;DHT22;32291;52.010;4.446;2023-08-31T03:49:43;11.70;99.90
47521;DHT22;32291;52.010;4.446;2023-08-31T03:50:49;11.70;99.90
47521;DHT22;32291;52.010;4.446;2023-08-31T03:51:53;11.70;99.90
47521;DHT22;32291;52.010;4.446;2023-08-31T03:53:03;11.60;99.90
47521;DHT22;32291;52.010;4.446;2023-08-31T03:54:05;11.60;99.90
47521;DHT22;32291;52.010;4.446;2023-08-31T03:55:13;11.60;99.90
47521;DHT22;32291;52.010;4.446;2023-08-31T03:56:20;11.60;99.90
47521;DHT22;32291;52.010;4.446;2023-08-31T03:57:27;11.60;99.90
47521;DHT22;32291;52.010;4.446;2023-08-31T03:58:33;11.60;99.90
47521;DHT22;32291;52.010;4.446;2023-08-31T03:59:40;11.60;99.90
47521;DHT22;32291;52.010;4.446;2023-08-31T04:00:43;11.60;99.90
47521;DHT22;32291;52.010;4.446;2023-08-31T04:01:48;11.60;99.90
47521;DHT22;32291;52.010;4.446;2023-08-31T04:02:55;11.60;99.90
47521;DHT22;32291;52.010;4.446;2023-08-31T04:04:02;11.60;99.90
47521;DHT22;32291;52.010;4.446;2023-08-31T04:05:06;11.70;99.90
47521;DHT22;32291;52.010;4.446;2023-08-31T04:06:15;11.70;99.90
47521;DHT22;32291;52.010;4.446;2023-08-31T04:07:22;11.80;99.90
47521;DHT22;32291;52.010;4.446;2023-08-31T04:08:29;11.90;99.90
47521;DHT22;32291;52.010;4.446;2023-08-31T04:09:32;11.90;99.90
47521;DHT22;32291;52.010;4.446;2023-08-31T04:10:34;12.00;99.90
47521;DHT22;32291;52.010;4.446;2023-08-31T04:11:36;12.00;99.90
47521;DHT22;32291;52.010;4.446;2023-08-31T04:12:38;12.10;99.90
47521;DHT22;32291;52.010;4.446;2023-08-31T04:13:41;12.20;99.90
47521;DHT22;32291;52.010;4.446;2023-08-31T04:14:43;12.20;99.90
47521;DHT22;32291;52.010;4.446;2023-08-31T04:15:54;12.20;99.90
47521;DHT22;32291;52.010;4.446;2023-08-31T04:16:57;12.30;99.90
47521;DHT22;32291;52.010;4.446;2023-08-31T04:18:04;12.40;99.90
47521;DHT22;32291;52.010;4.446;2023-08-31T04:19:12;12.40;99.90
47521;DHT22;32291;52.010;4.446;2023-08-31T04:20:14;12.40;99.90
47521;DHT22;32291;52.010;4.446;2023-08-31T04:21:16;12.40;99.90
47521;DHT22;32291;52.010;4.446;2023-08-31T04:22:19;12.40;99.90
47521;DHT22;32291;52.010;4.446;2023-08-31T04:23:26;12.40;99.90
47521;DHT22;32291;52.010;4.446;2023-08-31T04:24:28;12.40;99.90
47521;DHT22;32291;52.010;4.446;2023-08-31T04:25:30;12.50;99.90
47521;DHT22;32291;52.010;4.446;2023-08-31T04:26:33;12.50;99.90
47521;DHT22;32291;52.010;4.446;2023-08-31T04:27:35;12.60;99.90
47521;DHT22;32291;52.010;4.446;2023-08-31T04:28:45;12.60;99.90
47521;DHT22;32291;52.010;4.446;2023-08-31T04:29:52;12.70;99.90
47521;DHT22;32291;52.010;4.446;2023-08-31T04:30:57;12.70;99.90
47521;DHT22;32291;52.010;4.446;2023-08-31T04:32:04;12.70;99.90
47521;DHT22;32291;52.010;4.446;2023-08-31T04:33:11;12.70;99.90
47521;DHT22;32291;52.010;4.446;2023-08-31T04:34:19;12.70;99.90
47521;DHT22;32291;52.010;4.446;2023-08-31T04:35:21;12.80;99.90
47521;DHT22;32291;52.010;4.446;2023-08-31T04:36:24;12.80;99.90
47521;DHT22;32291;52.010;4.446;2023-08-31T04:37:33;12.80;99.90
47521;DHT22;32291;52.010;4.446;2023-08-31T04:38:37;12.80;99.90
47521;DHT22;32291;52.010;4.446;2023-08-31T04:39:42;12.90;99.90
47521;DHT22;32291;52.010;4.446;2023-08-31T04:40:49;12.90;99.90
47521;DHT22;32291;52.010;4.446;2023-08-31T04:41:51;13.00;99.90
47521;DHT22;32291;52.010;4.446;2023-08-31T04:42:53;13.00;99.90
47521;DHT22;32291;52.010;4.446;2023-08-31T04:44:00;13.00;99.90
47521;DHT22;32291;52.010;4.446;2023-08-31T04:45:07;12.90;99.90
47521;DHT22;32291;52.010;4.446;2023-08-31T04:46:15;12.90;99.90
47521;DHT22;32291;52.010;4.446;2023-08-31T04:47:17;13.00;99.90
47521;DHT22;32291;52.010;4.446;2023-08-31T04:48:25;13.00;99.90
47521;DHT22;32291;52.010;4.446;2023-08-31T04:49:32;12.90;99.90
47521;DHT22;32291;52.010;4.446;2023-08-31T04:50:34;13.00;99.90
47521;DHT22;32291;52.010;4.446;2023-08-31T04:51:44;13.00;99.90
47521;DHT22;32291;52.010;4.446;2023-08-31T04:52:51;13.00;99.90
47521;DHT22;32291;52.010;4.446;2023-08-31T04:53:53;13.10;99.90
47521;DHT22;32291;52.010;4.446;2023-08-31T04:54:56;13.10;99.90
47521;DHT22;32291;52.010;4.446;2023-08-31T04:55:58;13.10;99.90
47521;DHT22;32291;52.010;4.446;2023-08-31T04:57:01;13.20;99.90
47521;DHT22;32291;52.010;4.446;2023-08-31T04:58:10;13.10;99.90
47521;DHT22;32291;52.010;4.446;2023-08-31T04:59:17;13.10;99.90
47521;DHT22;32291;52.010;4.446;2023-08-31T05:00:19;13.10;99.90
47521;DHT22;32291;52.010;4.446;2023-08-31T05:01:26;13.10;99.90
47521;DHT22;32291;52.010;4.446;2023-08-31T05:02:29;13.10;99.90
47521;DHT22;32291;52.010;4.446;2023-08-31T05:03:36;13.10;99.90
47521;DHT22;32291;52.010;4.446;2023-08-31T05:04:43;13.10;99.90
47521;DHT22;32291;52.010;4.446;2023-08-31T05:05:45;13.10;99.90
47521;DHT22;32291;52.010;4.446;2023-08-31T05:06:52;13.20;99.90
47521;DHT22;32291;52.010;4.446;2023-08-31T05:07:59;13.20;99.90
47521;DHT22;32291;52.010;4.446;2023-08-31T05:09:01;13.20;99.90
47521;DHT22;32291;52.010;4.446;2023-08-31T05:10:06;13.20;99.90
47521;DHT22;32291;52.010;4.446;2023-08-31T05:11:18;13.20;99.90
47521;DHT22;32291;52.010;4.446;2023-08-31T05:12:26;13.20;99.90
47521;DHT22;32291;52.010;4.446;2023-08-31T05:13:28;13.20;99.90
47521;DHT22;32291;52.010;4.446;2023-08-31T05:14:30;13.20;99.90
47521;DHT22;32291;52.010;4.446;2023-08-31T05:15:37;13.30;99.90
47521;DHT22;32291;52.010;4.446;2023-08-31T05:16:42;13.30;99.90
47521;DHT22;32291;52.010;4.446;2023-08-31T05:17:44;13.40;99.90
47521;DHT22;32291;52.010;4.446;2023-08-31T05:18:52;13.40;99.90
47521;DHT22;32291;52.010;4.446;2023-08-31T05:19:57;13.40;99.90
47521;DHT22;32291;52.010;4.446;2023-08-31T05:20:59;13.40;99.90
47521;DHT22;32291;52.010;4.446;2023-08-31T05:22:01;13.30;99.90
47521;DHT22;32291;52.010;4.446;2023-08-31T05:23:04;13.30;99.90
47521;DHT22;32291;52.010;4.446;2023-08-31T05:24:14;13.30;99.90
47521;DHT22;32291;52.010;4.446;2023-08-31T05:25:16;13.30;99.90
47521;DHT22;32291;52.010;4.446;2023-08-31T05:26:22;13.30;99.90
47521;DHT22;32291;52.010;4.446;2023-08-31T05:27:32;13.40;99.90
47521;DHT22;32291;52.010;4.446;2023-08-31T05:28:39;13.50;99.90
47521;DHT22;32291;52.010;4.446;2023-08-31T05:29:45;13.40;99.90
47521;DHT22;32291;52.010;4.446;2023-08-31T05:30:51;13.50;99.90
47521;DHT22;32291;52.010;4.446;2023-08-31T05:31:55;13.50;99.90
47521;DHT22;32291;52.010;4.446;2023-08-31T05:33:00;13.50;99.90
47521;DHT22;32291;52.010;4.446;2023-08-31T05:34:10;13.60;99.90
47521;DHT22;32291;52.010;4.446;2023-08-31T05:35:12;13.50;99.90
47521;DHT22;32291;52.010;4.446;2023-08-31T05:36:14;13.60;99.90
47521;DHT22;32291;52.010;4.446;2023-08-31T05:37:16;13.60;99.90
47521;DHT22;32291;52.010;4.446;2023-08-31T05:38:23;13.60;99.90
47521;DHT22;32291;52.010;4.446;2023-08-31T05:39:31;13.60;99.90
47521;DHT22;32291;52.010;4.446;2023-08-31T05:40:38;13.60;99.90
47521;DHT22;32291;52.010;4.446;2023-08-31T05:41:40;13.60;99.90
47521;DHT22;32291;52.010;4.446;2023-08-31T05:42:43;13.60;99.90
47521;DHT22;32291;52.010;4.446;2023-08-31T05:43:45;13.60;99.90
47521;DHT22;32291;52.010;4.446;2023-08-31T05:44:48;13.60;99.90
47521;DHT22;32291;52.010;4.446;2023-08-31T05:45:51;13.60;99.90
47521;DHT22;32291;52.010;4.446;2023-08-31T05:46:58;13.60;99.90
47521;DHT22;32291;52.010;4.446;2023-08-31T05:48:04;13.70;99.90
47521;DHT22;32291;52.010;4.446;2023-08-31T05:49:06;13.60;99.90
47521;DHT22;32291;52.010;4.446;2023-08-31T05:50:09;13.60;99.90
47521;DHT22;32291;52.010;4.446;2023-08-31T05:51:17;13.60;99.90
47521;DHT22;32291;52.010;4.446;2023-08-31T05:52:22;13.50;99.90
47521;DHT22;32291;52.010;4.446;2023-08-31T05:53:24;13.60;99.90
47521;DHT22;32291;52.010;4.446;2023-08-31T05:54:26;13.60;99.90
47521;DHT22;32291;52.010;4.446;2023-08-31T05:55:28;13.50;99.90
47521;DHT22;32291;52.010;4.446;2023-08-31T05:56:30;13.50;99.90
47521;DHT22;32291;52.010;4.446;2023-08-31T05:57:35;13.60;99.90
47521;DHT22;32291;52.010;4.446;2023-08-31T05:58:39;13.60;99.90
47521;DHT22;32291;52.010;4.446;2023-08-31T05:59:47;13.60;99.90
47521;DHT22;32291;52.010;4.446;2023-08-31T06:00:51;13.60;99.90
47521;DHT22;32291;52.010;4.446;2023-08-31T06:01:58;13.60;99.90
47521;DHT22;32291;52.010;4.446;2023-08-31T06:03:06;13.60;99.90
47521;DHT22;32291;52.010;4.446;2023-08-31T06:04:12;13.60;99.90
47521;DHT22;32291;52.010;4.446;2023-08-31T06:05:15;13.70;99.90
47521;DHT22;32291;52.010;4.446;2023-08-31T06:06:25;13.80;99.90
47521;DHT22;32291;52.010;4.446;2023-08-31T06:07:27;13.80;99.90
47521;DHT22;32291;52.010;4.446;2023-08-31T06:08:37;13.80;99.90
47521;DHT22;32291;52.010;4.446;2023-08-31T06:09:44;13.80;99.90
47521;DHT22;32291;52.010;4.446;2023-08-31T06:10:51;13.80;99.90
47521;DHT22;32291;52.010;4.446;2023-08-31T06:11:58;13.80;99.90
47521;DHT22;32291;52.010;4.446;2023-08-31T06:13:05;13.80;99.90
47521;DHT22;32291;52.010;4.446;2023-08-31T06:14:12;13.90;99.90
47521;DHT22;32291;52.010;4.446;2023-08-31T06:15:19;13.90;99.90
47521;DHT22;32291;52.010;4.446;2023-08-31T06:16:26;13.90;99.90
47521;DHT22;32291;52.010;4.446;2023-08-31T06:17:33;13.90;99.90
47521;DHT22;32291;52.010;4.446;2023-08-31T06:18:41;13.90;99.90
47521;DHT22;32291;52.010;4.446;2023-08-31T06:19:50;14.00;99.90
47521;DHT22;32291;52.010;4.446;2023-08-31T06:21:03;14.00;99.90
47521;DHT22;32291;52.010;4.446;2023-08-31T06:22:05;14.10;99.90
47521;DHT22;32291;52.010;4.446;2023-08-31T06:23:08;14.20;99.90
47521;DHT22;32291;52.010;4.446;2023-08-31T06:24:16;14.20;99.90
47521;DHT22;32291;52.010;4.446;2023-08-31T06:25:29;14.20;99.90
47521;DHT22;32291;52.010;4.446;2023-08-31T06:26:31;14.20;99.90
47521;DHT22;32291;52.010;4.446;2023-08-31T06:27:33;14.20;99.90
47521;DHT22;32291;52.010;4.446;2023-08-31T06:28:41;14.20;99.90
47521;DHT22;32291;52.010;4.446;2023-08-31T06:29:44;14.20;99.90
47521;DHT22;32291;52.010;4.446;2023-08-31T06:30:51;14.20;99.90
47521;DHT22;32291;52.010;4.446;2023-08-31T06:31:58;14.20;99.90
47521;DHT22;32291;52.010;4.446;2023-08-31T06:33:00;14.30;99.90
47521;DHT22;32291;52.010;4.446;2023-08-31T06:34:03;14.30;99.90
47521;DHT22;32291;52.010;4.446;2023-08-31T06:35:14;14.40;99.90
47521;DHT22;32291;52.010;4.446;2023-08-31T06:36:19;14.40;99.90
47521;DHT22;32291;52.010;4.446;2023-08-31T06:37:22;14.40;99.90
47521;DHT22;32291;52.010;4.446;2023-08-31T06:38:29;14.40;99.90
47521;DHT22;32291;52.010;4.446;2023-08-31T06:39:31;14.40;99.90
47521;DHT22;32291;52.010;4.446;2023-08-31T06:40:41;14.40;99.90
47521;DHT22;32291;52.010;4.446;2023-08-31T06:41:48;14.40;99.90
47521;DHT22;32291;52.010;4.446;2023-08-31T06:42:57;14.50;99.90
47521;DHT22;32291;52.010;4.446;2023-08-31T06:43:59;14.50;99.90
47521;DHT22;32291;52.010;4.446;2023-08-31T06:45:05;14.50;99.90
47521;DHT22;32291;52.010;4.446;2023-08-31T06:46:13;14.60;99.90
47521;DHT22;32291;52.010;4.446;2023-08-31T06:47:15;14.60;99.90
47521;DHT22;32291;52.010;4.446;2023-08-31T06:48:19;14.60;99.90
47521;DHT22;32291;52.010;4.446;2023-08-31T06:49:27;14.60;99.90
47521;DHT22;32291;52.010;4.446;2023-08-31T06:50:29;14.60;99.90
47521;DHT22;32291;52.010;4.446;2023-08-31T06:51:32;14.60;99.90
47521;DHT22;32291;52.010;4.446;2023-08-31T06:52:37;14.70;99.90
47521;DHT22;32291;52.010;4.446;2023-08-31T06:53:46;14.70;99.90
47521;DHT22;32291;52.010;4.446;2023-08-31T06:54:53;14.70;99.90
47521;DHT22;32291;52.010;4.446;2023-08-31T06:55:57;14.80;99.90
47521;DHT22;32291;52.010;4.446;2023-08-31T06:56:59;14.70;99.90
47521;DHT22;32291;52.010;4.446;2023-08-31T06:58:04;14.80;99.90
47521;DHT22;32291;52.010;4.446;2023-08-31T06:59:11;14.80;99.90
47521;DHT22;32291;52.010;4.446;2023-08-31T07:00:14;14.90;99.90
47521;DHT22;32291;52.010;4.446;2023-08-31T07:01:16;14.90;99.90
47521;DHT22;32291;52.010;4.446;2023-08-31T07:02:19;14.90;99.90
47521;DHT22;32291;52.010;4.446;2023-08-31T07:03:30;14.90;99.90
47521;DHT22;32291;52.010;4.446;2023-08-31T07:04:33;15.00;99.90